createdAt,value
2023-04-21T00:01:37.248Z,99.90
2023-04-21T00:06:41.645Z,99.90
2023-04-21T00:11:45.451Z,99.90
2023-04-21T00:16:52.591Z,99.90
2023-04-21T00:21:59.084Z,99.90
2023-04-21T00:27:03.740Z,99.90
2023-04-21T00:32:10.167Z,99.90
2023-04-21T00:37:13.806Z,99.90
2023-04-21T00:42:17.805Z,99.90
2023-04-21T00:47:23.124Z,99.90
2023-04-21T00:52:27.042Z,99.90
2023-04-21T00:57:31.936Z,99.90
2023-04-21T01:02:39.184Z,99.90
2023-04-21T01:07:42.800Z,99.90
2023-04-21T01:12:49.218Z,99.90
2023-04-21T01:17:57.108Z,99.90
2023-04-21T01:23:02.224Z,99.90
2023-04-21T01:28:05.833Z,99.90
2023-04-21T01:33:09.099Z,99.90
2023-04-21T01:38:14.402Z,99.90
2023-04-21T01:43:20.002Z,99.90
2023-04-21T01:48:23.677Z,99.90
2023-04-21T01:53:28.432Z,99.90
2023-04-21T01:58:32.511Z,99.90
2023-04-21T02:03:37.465Z,99.90
2023-04-21T02:08:48.059Z,99.90
2023-04-21T02:13:51.510Z,99.90
2023-04-21T02:18:55.198Z,99.90
2023-04-21T02:24:00.133Z,99.90
2023-04-21T02:29:04.038Z,99.90
2023-04-21T02:34:07.296Z,99.90
2023-04-21T02:39:12.051Z,99.90
2023-04-21T02:44:15.347Z,99.90
2023-04-21T02:49:18.953Z,99.90
2023-04-21T02:54:23.847Z,99.90
2023-04-21T02:59:27.080Z,99.90
2023-04-21T03:04:32.422Z,99.90
2023-04-21T03:09:37.192Z,99.90
2023-04-21T03:14:40.463Z,99.90
2023-04-21T03:19:43.665Z,99.90
2023-04-21T03:24:49.550Z,99.90
2023-04-21T03:29:52.812Z,99.90
2023-04-21T03:34:56.084Z,99.90
2023-04-21T03:40:01.112Z,99.90
2023-04-21T03:45:05.179Z,99.90
2023-04-21T03:50:10.586Z,99.90
2023-04-21T03:55:15.204Z,99.90
2023-04-21T04:00:18.505Z,99.90
2023-04-21T04:05:22.157Z,99.90
2023-04-21T04:10:26.895Z,99.90
2023-04-21T04:15:30.200Z,99.90
2023-04-21T04:20:33.404Z,99.90
2023-04-21T04:25:39.290Z,99.90
2023-04-21T04:30:42.764Z,99.90
2023-04-21T04:35:47.648Z,99.90
2023-04-21T04:40:57.728Z,99.90
2023-04-21T04:46:01.879Z,99.90
2023-04-21T04:51:05.373Z,99.90
2023-04-21T04:56:10.455Z,99.90
2023-04-21T05:01:14.554Z,99.90
2023-04-21T05:06:18.095Z,99.90
2023-04-21T05:11:23.244Z,99.90
2023-04-21T05:16:26.591Z,99.90
2023-04-21T05:21:31.454Z,99.90
2023-04-21T05:26:36.219Z,99.90
2023-04-21T05:31:40.074Z,99.90
2023-04-21T05:36:43.589Z,99.90
2023-04-21T05:41:48.447Z,99.90
2023-04-21T05:46:51.720Z,99.90
2023-04-21T05:51:54.930Z,99.90
2023-04-21T05:56:59.872Z,99.90
2023-04-21T06:02:04.708Z,99.90
2023-04-21T06:07:09.779Z,99.90
2023-04-21T06:12:14.356Z,99.90
2023-04-21T06:17:19.122Z,99.90
2023-04-21T06:22:22.480Z,99.90
2023-04-21T06:27:27.141Z,99.90
2023-04-21T06:32:30.382Z,99.90
2023-04-21T06:37:33.910Z,99.90
2023-04-21T06:42:38.528Z,99.90
2023-04-21T06:47:41.825Z,99.90
2023-04-21T06:52:45.128Z,99.90
2023-04-21T06:57:49.753Z,99.90
2023-04-21T07:02:53.041Z,99.90
2023-04-21T07:07:59.813Z,99.90
2023-04-21T07:13:04.850Z,99.90
2023-04-21T07:18:08.549Z,99.90
2023-04-21T07:23:12.169Z,99.90
2023-04-21T07:28:17.270Z,99.90
2023-04-21T07:33:21.038Z,99.90
2023-04-21T07:38:24.973Z,99.90
2023-04-21T07:43:31.144Z,99.90
2023-04-21T07:48:34.612Z,99.90
2023-04-21T07:53:38.198Z,99.90
2023-04-21T07:58:43.232Z,99.90
2023-04-21T08:03:46.630Z,99.90
2023-04-21T08:08:50.291Z,99.90
2023-04-21T08:13:55.357Z,99.90
2023-04-21T08:18:58.769Z,99.90
2023-04-21T08:24:02.636Z,99.90
2023-04-21T08:29:11.047Z,99.90
2023-04-21T08:34:14.748Z,99.60
2023-04-21T08:39:18.778Z,99.00
2023-04-21T08:44:24.239Z,97.80
2023-04-21T08:49:32.101Z,96.70
2023-04-21T08:54:36.410Z,95.70
2023-04-21T08:59:41.077Z,94.50
2023-04-21T09:04:46.446Z,93.40
2023-04-21T09:10:10.585Z,92.20
2023-04-21T09:21:17.065Z,89.40
2023-04-21T09:26:23.376Z,86.70
2023-04-21T09:31:29.432Z,84.60
2023-04-21T09:36:34.719Z,82.50
2023-04-21T09:41:38.208Z,80.60
2023-04-21T09:46:45.263Z,79.40
2023-04-21T09:52:16.921Z,77.30
2023-04-21T09:57:18.536Z,75.40
2023-04-21T10:02:22.745Z,73.60
2023-04-21T10:07:27.860Z,72.40
2023-04-21T10:12:31.845Z,71.40
2023-04-21T10:17:37.441Z,70.00
2023-04-21T10:22:44.724Z,69.50
2023-04-21T10:27:48.494Z,68.10
2023-04-21T10:33:04.096Z,66.70
2023-04-21T10:38:10.347Z,66.00
2023-04-21T10:43:45.309Z,65.00
2023-04-21T10:48:54.202Z,64.60
2023-04-21T10:53:59.663Z,63.70
2023-04-21T10:59:03.290Z,63.30
2023-04-21T11:04:07.235Z,62.70
2023-04-21T11:09:12.248Z,62.00
2023-04-21T11:14:19.368Z,61.60
2023-04-21T11:19:24.931Z,60.80
2023-04-21T11:24:30.057Z,60.00
2023-04-21T11:29:34.594Z,59.60
2023-04-21T11:34:39.376Z,59.20
2023-04-21T11:39:44.949Z,59.50
2023-04-21T11:44:48.812Z,59.30
2023-04-21T11:49:55.526Z,58.50
2023-04-21T11:55:03.977Z,58.10
2023-04-21T12:00:11.055Z,57.70
2023-04-21T12:05:16.046Z,57.40
2023-04-21T12:10:22.039Z,57.30
2023-04-21T12:15:25.657Z,57.10
2023-04-21T12:20:31.533Z,56.60
2023-04-21T12:25:36.774Z,56.30
2023-04-21T12:30:42.317Z,56.50
2023-04-21T12:35:46.417Z,56.70
2023-04-21T12:40:51.541Z,56.50
2023-04-21T12:45:55.604Z,56.20
2023-04-21T12:50:59.174Z,55.80
2023-04-21T12:56:05.396Z,55.40
2023-04-21T13:01:09.535Z,55.50
2023-04-21T13:06:13.704Z,55.20
2023-04-21T13:11:18.885Z,55.20
2023-04-21T13:16:22.586Z,54.30
2023-04-21T13:21:26.658Z,54.30
2023-04-21T13:26:33.921Z,54.50
2023-04-21T13:31:37.410Z,53.80
2023-04-21T13:36:41.340Z,53.50
2023-04-21T13:41:46.464Z,53.20
2023-04-21T13:46:52.634Z,53.30
2023-04-21T13:51:56.198Z,53.00
2023-04-21T13:57:01.595Z,53.10
2023-04-21T14:02:05.526Z,52.80
2023-04-21T14:07:09.508Z,52.80
2023-04-21T14:12:14.668Z,52.80
2023-04-21T14:17:18.229Z,52.40
2023-04-21T14:22:22.101Z,51.80
2023-04-21T14:27:27.053Z,51.60
2023-04-21T14:32:30.758Z,50.90
2023-04-21T14:37:34.542Z,50.70
2023-04-21T14:42:39.581Z,50.60
2023-04-21T14:47:43.869Z,50.50
2023-04-21T14:52:49.974Z,50.40
2023-04-21T14:57:55.101Z,50.90
2023-04-21T15:02:59.505Z,50.50
2023-04-21T15:08:03.553Z,50.50
2023-04-21T15:13:08.667Z,50.50
2023-04-21T15:18:12.297Z,50.70
2023-04-21T15:23:16.016Z,50.90
2023-04-21T15:28:20.681Z,51.30
2023-04-21T15:33:24.315Z,51.50
2023-04-21T15:38:28.134Z,51.80
2023-04-21T15:43:33.158Z,52.00
2023-04-21T15:48:36.497Z,52.00
2023-04-21T15:53:44.208Z,52.30
2023-04-21T15:58:49.141Z,52.40
2023-04-21T16:03:53.760Z,52.20
2023-04-21T16:08:57.544Z,52.20
2023-04-21T16:14:02.826Z,52.20
2023-04-21T16:19:06.766Z,52.10
2023-04-21T16:24:11.441Z,52.30
2023-04-21T16:29:16.705Z,52.00
2023-04-21T16:34:20.714Z,51.80
2023-04-21T16:39:24.648Z,51.80
2023-04-21T16:44:29.624Z,51.40
2023-04-21T16:49:33.261Z,51.20
2023-04-21T16:54:39.967Z,51.40
2023-04-21T16:59:45.194Z,51.50
2023-04-21T17:04:49.201Z,51.40
2023-04-21T17:09:53.298Z,51.50
2023-04-21T17:14:58.307Z,51.50
2023-04-21T17:20:02.033Z,51.60
2023-04-21T17:25:06.229Z,51.60
2023-04-21T17:30:11.606Z,51.90
2023-04-21T17:35:14.922Z,52.60
2023-04-21T17:40:18.919Z,52.50
2023-04-21T17:45:23.583Z,52.90
2023-04-21T17:50:27.741Z,53.20
2023-04-21T17:55:31.013Z,53.50
2023-04-21T18:00:35.747Z,54.10
2023-04-21T18:05:39.122Z,54.60
2023-04-21T18:10:42.730Z,55.30
2023-04-21T18:15:47.706Z,55.70
2023-04-21T18:20:51.443Z,56.10
2023-04-21T18:25:55.235Z,56.60
2023-04-21T18:31:00.807Z,57.10
2023-04-21T18:36:04.820Z,57.60
2023-04-21T18:41:08.589Z,58.00
2023-04-21T18:46:13.209Z,58.50
2023-04-21T18:51:16.850Z,58.90
2023-04-21T18:56:20.465Z,59.30
2023-04-21T19:01:25.677Z,59.70
2023-04-21T19:06:29.351Z,60.00
2023-04-21T19:11:33.470Z,60.30
2023-04-21T19:16:38.561Z,60.60
2023-04-21T19:21:41.830Z,61.00
2023-04-21T19:26:45.113Z,61.30
2023-04-21T19:31:49.726Z,61.60
2023-04-21T19:36:53.046Z,61.90
2023-04-21T19:41:57.608Z,62.20
2023-04-21T19:47:02.727Z,62.50
2023-04-21T19:52:06.032Z,62.90
2023-04-21T19:57:11.910Z,63.30
2023-04-21T20:02:17.151Z,63.60
2023-04-21T20:07:21.048Z,64.00
2023-04-21T20:12:24.469Z,64.30
2023-04-21T20:17:29.463Z,64.70
2023-04-21T20:22:32.753Z,64.80
2023-04-21T20:27:36.056Z,65.10
2023-04-21T20:32:40.693Z,65.40
2023-04-21T20:37:44.432Z,65.70
2023-04-21T20:42:48.658Z,65.90
2023-04-21T20:47:53.292Z,66.30
2023-04-21T20:52:56.760Z,66.60
2023-04-21T20:57:59.970Z,66.90
2023-04-21T21:03:09.951Z,67.20
2023-04-21T21:08:13.776Z,67.60
2023-04-21T21:13:17.371Z,67.90
2023-04-21T21:18:22.473Z,68.30
2023-04-21T21:23:26.251Z,68.60
2023-04-21T21:28:30.368Z,68.80
2023-04-21T21:33:37.406Z,69.30
2023-04-21T21:38:41.268Z,69.90
2023-04-21T21:43:45.007Z,69.90
2023-04-21T21:48:50.275Z,70.10
2023-04-21T21:53:53.987Z,70.40
2023-04-21T21:58:57.804Z,70.70
2023-04-21T22:04:02.590Z,71.00
2023-04-21T22:09:06.118Z,71.30
2023-04-21T22:14:22.145Z,71.50
2023-04-21T22:19:28.983Z,71.80
2023-04-21T22:24:32.342Z,72.20
2023-04-21T22:29:35.721Z,72.50
2023-04-21T22:34:40.504Z,72.70
2023-04-21T22:39:43.732Z,73.10
2023-04-21T22:44:47.247Z,73.40
2023-04-21T22:49:53.518Z,73.70
2023-04-21T22:54:56.764Z,74.20
2023-04-21T23:00:00.525Z,74.50
2023-04-21T23:05:06.082Z,74.90
2023-04-21T23:10:09.801Z,75.20
2023-04-21T23:15:13.258Z,75.60
2023-04-21T23:20:18.467Z,76.10
2023-04-21T23:25:22.361Z,76.30
2023-04-21T23:30:26.072Z,76.60
2023-04-21T23:35:31.075Z,76.90
2023-04-21T23:40:34.759Z,77.30
2023-04-21T23:45:38.195Z,77.80
2023-04-21T23:50:42.881Z,78.10
2023-04-21T23:55:46.302Z,78.40
